Time,TemperatureF,DewpointF,PressureIn,WindDirection,WindDirectionDegrees,WindSpeedMPH,WindSpeedGustMPH,Humidity,HourlyPrecipIn,Conditions,Clouds,dailyrainin,SoftwareType,DateUTC
2013-02-14 00:02:00,30.0,-99.9,-100.00,North,0,0.0,-999.0,-999,-99.99,,,-99.99,,2013-02-14 06:02:00,
2013-02-14 00:11:00,29.0,-99.9,-100.00,North,0,0.0,-999.0,-999,-99.99,,,-99.99,,2013-02-14 06:11:00,
2013-02-14 00:22:00,29.0,-99.9,-100.00,North,0,0.0,-999.0,-999,-99.99,,,-99.99,,2013-02-14 06:22:00,
2013-02-14 00:32:00,29.0,-99.9,-100.00,North,0,0.0,-999.0,-999,-99.99,,,-99.99,,2013-02-14 06:32:00,
2013-02-14 00:42:00,29.0,-99.9,-100.00,North,0,0.0,-999.0,-999,-99.99,,,-99.99,,2013-02-14 06:42:00,
2013-02-14 00:52:00,29.0,-99.9,-100.00,North,0,0.0,-999.0,-999,-99.99,,,-99.99,,2013-02-14 06:52:00,
2013-02-14 01:02:00,31.0,-99.9,-100.00,North,0,0.0,-999.0,-999,-99.99,,,-99.99,,2013-02-14 07:02:00,
2013-02-14 01:11:00,31.0,-99.9,-100.00,North,0,0.0,-999.0,-999,-99.99,,,-99.99,,2013-02-14 07:11:00,
2013-02-14 01:22:00,32.0,-99.9,-100.00,North,0,0.0,-999.0,-999,-99.99,,,-99.99,,2013-02-14 07:22:00,
2013-02-14 01:32:00,34.0,-99.9,-100.00,WNW,302,2.0,-999.0,-999,-99.99,,,-99.99,,2013-02-14 07:32:00,
2013-02-14 01:42:00,34.0,-99.9,-100.00,NW,306,1.0,-999.0,-999,-99.99,,,-99.99,,2013-02-14 07:42:00,
2013-02-14 01:52:00,33.0,-99.9,-100.00,North,0,0.0,-999.0,-999,-99.99,,,-99.99,,2013-02-14 07:52:00,
2013-02-14 02:01:00,33.0,-99.9,-100.00,NW,306,1.0,-999.0,-999,-99.99,,,-99.99,,2013-02-14 08:01:00,
2013-02-14 02:11:00,33.0,-99.9,-100.00,NW,306,0.0,-999.0,-999,-99.99,,,-99.99,,2013-02-14 08:11:00,
2013-02-14 02:22:00,34.0,-99.9,-100.00,WNW,293,1.0,-999.0,-999,-99.99,,,-99.99,,2013-02-14 08:22:00,
2013-02-14 02:32:00,34.0,-99.9,-100.00,WNW,302,1.0,-999.0,-999,-99.99,,,-99.99,,2013-02-14 08:32:00,
2013-02-14 02:43:00,34.0,-99.9,-100.00,WNW,300,7.0,-999.0,-999,-99.99,,,-99.99,,2013-02-14 08:43:00,
2013-02-14 02:52:00,34.0,-99.9,-100.00,NW,308,4.0,-999.0,-999,-99.99,,,-99.99,,2013-02-14 08:52:00,
2013-02-14 03:02:00,33.0,-99.9,-100.00,WNW,303,3.0,-999.0,-999,-99.99,,,-99.99,,2013-02-14 09:02:00,
2013-02-14 03:12:00,33.0,-99.9,-100.00,NW,305,1.0,-999.0,-999,-99.99,,,-99.99,,2013-02-14 09:12:00,
2013-02-14 03:22:00,33.0,-99.9,-100.00,WNW,302,0.0,-999.0,-999,-99.99,,,-99.99,,2013-02-14 09:22:00,
2013-02-14 03:32:00,33.0,-99.9,-100.00,WNW,301,0.0,-999.0,-999,-99.99,,,-99.99,,2013-02-14 09:32:00,
2013-02-14 03:42:00,32.0,-99.9,-100.00,WNW,303,0.0,-999.0,-999,-99.99,,,-99.99,,2013-02-14 09:42:00,
2013-02-14 03:52:00,32.0,-99.9,-100.00,NW,304,2.0,-999.0,-999,-99.99,,,-99.99,,2013-02-14 09:52:00,
2013-02-14 04:02:00,31.0,-99.9,-100.00,NW,306,1.0,-999.0,-999,-99.99,,,-99.99,,2013-02-14 10:02:00,
2013-02-14 04:11:00,31.0,-99.9,-100.00,NW,312,1.0,-999.0,-999,-99.99,,,-99.99,,2013-02-14 10:11:00,
2013-02-14 04:22:00,32.0,-99.9,-100.00,NNW,331,1.0,-999.0,-999,-99.99,,,-99.99,,2013-02-14 10:22:00,
2013-02-14 04:32:00,32.0,-99.9,-100.00,NW,317,23.0,-999.0,-999,-99.99,,,-99.99,,2013-02-14 10:32:00,
2013-02-14 04:42:00,31.0,-99.9,-100.00,NNW,333,6.0,-999.0,-999,-99.99,,,-99.99,,2013-02-14 10:42:00,
2013-02-14 04:52:00,31.0,-99.9,-100.00,NW,321,1.0,-999.0,-999,-99.99,,,-99.99,,2013-02-14 10:52:00,
2013-02-14 05:02:00,31.0,-99.9,-100.00,NNW,338,1.0,-999.0,-999,-99.99,,,-99.99,,2013-02-14 11:02:00,
2013-02-14 05:12:00,31.0,-99.9,-100.00,NNW,327,3.0,-999.0,-999,-99.99,,,-99.99,,2013-02-14 11:12:00,
2013-02-14 05:22:00,31.0,-99.9,-100.00,NNW,328,7.0,-999.0,-999,-99.99,,,-99.99,,2013-02-14 11:22:00,
2013-02-14 05:32:00,30.0,-99.9,-100.00,NNW,344,1.0,-999.0,-999,-99.99,,,-99.99,,2013-02-14 11:32:00,
2013-02-14 05:42:00,30.0,-99.9,-100.00,North,-999,0.0,-999.0,-999,-99.99,,,-99.99,,2013-02-14 11:42:00,
2013-02-14 05:52:00,29.0,-99.9,-100.00,NNW,334,1.0,-999.0,-999,-99.99,,,-99.99,,2013-02-14 11:52:00,
2013-02-14 06:02:00,29.0,-99.9,-100.00,NNW,341,0.0,-999.0,-999,-99.99,,,-99.99,,2013-02-14 12:02:00,
2013-02-14 06:12:00,29.0,-99.9,-100.00,North,0,0.0,-999.0,-999,-99.99,,,-99.99,,2013-02-14 12:12:00,
2013-02-14 06:22:00,30.0,-99.9,-100.00,North,0,0.0,-999.0,-999,-99.99,,,-99.99,,2013-02-14 12:22:00,
2013-02-14 06:32:00,30.0,-99.9,-100.00,North,0,0.0,-999.0,-999,-99.99,,,-99.99,,2013-02-14 12:32:00,
2013-02-14 06:42:00,29.0,-99.9,-100.00,North,0,0.0,-999.0,-999,-99.99,,,-99.99,,2013-02-14 12:42:00,
2013-02-14 06:53:00,29.0,-99.9,-100.00,North,0,0.0,-999.0,-999,-99.99,,,-99.99,,2013-02-14 12:53:00,
2013-02-14 07:02:00,29.0,-99.9,-100.00,North,0,0.0,-999.0,-999,-99.99,,,-99.99,,2013-02-14 13:02:00,
2013-02-14 07:11:00,27.0,-99.9,-100.00,North,0,0.0,-999.0,-999,-99.99,,,-99.99,,2013-02-14 13:11:00,
2013-02-14 07:21:00,27.0,-99.9,-100.00,NNW,331,1.0,-999.0,-999,-99.99,,,-99.99,,2013-02-14 13:21:00,
2013-02-14 07:32:00,27.0,-99.9,-100.00,NNW,336,0.0,-999.0,-999,-99.99,,,-99.99,,2013-02-14 13:32:00,
2013-02-14 07:42:00,27.0,-99.9,-100.00,NNW,336,0.0,-999.0,-999,-99.99,,,-99.99,,2013-02-14 13:42:00,
2013-02-14 07:52:00,27.0,-99.9,-100.00,WNW,298,1.0,-999.0,-999,-99.99,,,-99.99,,2013-02-14 13:52:00,
2013-02-14 08:01:00,27.0,-99.9,-100.00,North,0,0.0,-999.0,-999,-99.99,,,-99.99,,2013-02-14 14:01:00,
2013-02-14 08:11:00,26.0,-99.9,-100.00,North,0,0.0,-999.0,-999,-99.99,,,-99.99,,2013-02-14 14:11:00,
2013-02-14 08:22:00,26.0,-99.9,-100.00,North,0,0.0,-999.0,-999,-99.99,,,-99.99,,2013-02-14 14:22:00,
2013-02-14 08:32:00,28.0,-99.9,-100.00,North,0,0.0,-999.0,-999,-99.99,,,-99.99,,2013-02-14 14:32:00,
2013-02-14 08:42:00,29.0,-99.9,-100.00,North,0,0.0,-999.0,-999,-99.99,,,-99.99,,2013-02-14 14:42:00,
2013-02-14 08:52:00,29.0,-99.9,-100.00,West,268,0.0,-999.0,-999,-99.99,,,-99.99,,2013-02-14 14:52:00,
2013-02-14 09:02:00,31.0,-99.9,-100.00,WNW,303,2.0,-999.0,-999,-99.99,,,-99.99,,2013-02-14 15:02:00,
2013-02-14 09:11:00,33.0,-99.9,-100.00,WNW,296,1.0,-999.0,-999,-99.99,,,-99.99,,2013-02-14 15:11:00,
2013-02-14 09:22:00,33.0,-99.9,-100.00,NW,308,2.0,-999.0,-999,-99.99,,,-99.99,,2013-02-14 15:22:00,
2013-02-14 09:32:00,34.0,-99.9,-100.00,NW,309,19.0,-999.0,-999,-99.99,,,-99.99,,2013-02-14 15:32:00,
2013-02-14 09:42:00,34.0,-99.9,-100.00,NW,320,3.0,-999.0,-999,-99.99,,,-99.99,,2013-02-14 15:42:00,
2013-02-14 09:52:00,35.0,-99.9,-100.00,WNW,300,10.0,-999.0,-999,-99.99,,,-99.99,,2013-02-14 15:52:00,
2013-02-14 10:02:00,35.0,35.0,-100.00,WNW,295,3.0,-999.0,98,-99.99,,,-99.99,,2013-02-14 16:02:00,
2013-02-14 10:11:00,35.0,33.0,-100.00,WNW,300,2.0,-999.0,93,-99.99,,,-99.99,,2013-02-14 16:11:00,
2013-02-14 10:21:00,35.0,33.0,-100.00,WNW,299,1.0,-999.0,90,-99.99,,,-99.99,,2013-02-14 16:21:00,
2013-02-14 10:32:00,35.0,32.0,-100.00,NW,318,0.0,-999.0,89,-99.99,,,-99.99,,2013-02-14 16:32:00,
2013-02-14 10:41:00,34.0,31.0,-100.00,WNW,298,4.0,-999.0,89,-99.99,,,-99.99,,2013-02-14 16:41:00,
2013-02-14 10:51:00,35.0,32.0,-100.00,NW,311,9.0,-999.0,90,-99.99,,,-99.99,,2013-02-14 16:51:00,
2013-02-14 11:01:00,35.0,32.0,-100.00,NW,311,9.0,-999.0,90,-99.99,,,-99.99,,2013-02-14 17:01:00,
2013-02-14 11:11:00,36.0,32.0,-100.00,WNW,300,10.0,-999.0,84,-99.99,,,-99.99,,2013-02-14 17:11:00,
2013-02-14 11:21:00,36.0,31.0,-100.00,NW,311,17.0,-999.0,80,-99.99,,,-99.99,,2013-02-14 17:21:00,
2013-02-14 11:32:00,37.0,31.0,-100.00,WNW,297,20.0,-999.0,78,-99.99,,,-99.99,,2013-02-14 17:32:00,
2013-02-14 11:42:00,37.0,31.0,-100.00,WNW,298,22.0,-999.0,77,-99.99,,,-99.99,,2013-02-14 17:42:00,
2013-02-14 11:52:00,37.0,30.0,-100.00,NW,309,1.0,-999.0,77,-99.99,,,-99.99,,2013-02-14 17:52:00,
2013-02-14 12:01:00,36.0,29.0,-100.00,NW,320,17.0,-999.0,77,-99.99,,,-99.99,,2013-02-14 18:01:00,
2013-02-14 12:11:00,36.0,31.0,-100.00,NW,318,14.0,-999.0,79,-99.99,,,-99.99,,2013-02-14 18:11:00,
2013-02-14 12:23:00,36.0,30.0,-100.00,NW,311,27.0,-999.0,79,-99.99,,,-99.99,,2013-02-14 18:23:00,
2013-02-14 12:32:00,36.0,31.0,-100.00,WNW,300,3.0,-999.0,80,-99.99,,,-99.99,,2013-02-14 18:32:00,
2013-02-14 12:42:00,37.0,31.0,-100.00,WNW,301,18.0,-999.0,80,-99.99,,,-99.99,,2013-02-14 18:42:00,
2013-02-14 12:51:00,37.0,31.0,-100.00,WNW,300,2.0,-999.0,79,-99.99,,,-99.99,,2013-02-14 18:51:00,
2013-02-14 13:02:00,35.0,29.0,-100.00,NW,316,20.0,-999.0,77,-99.99,,,-99.99,,2013-02-14 19:02:00,
2013-02-14 13:11:00,36.0,30.0,-100.00,NW,318,3.0,-999.0,79,-99.99,,,-99.99,,2013-02-14 19:11:00,
2013-02-14 13:21:00,37.0,31.0,-100.00,NW,322,10.0,-999.0,79,-99.99,,,-99.99,,2013-02-14 19:21:00,
2013-02-14 13:31:00,37.0,30.0,-100.00,NW,310,25.0,-999.0,75,-99.99,,,-99.99,,2013-02-14 19:31:00,
2013-02-14 13:42:00,36.0,30.0,-100.00,WNW,301,25.0,-999.0,80,-99.99,,,-99.99,,2013-02-14 19:42:00,
2013-02-14 13:51:00,38.0,30.0,-100.00,NW,317,22.0,-999.0,71,-99.99,,,-99.99,,2013-02-14 19:51:00,
2013-02-14 14:01:00,38.0,30.0,-100.00,WNW,300,8.0,-999.0,71,-99.99,,,-99.99,,2013-02-14 20:01:00,
2013-02-14 14:11:00,37.0,30.0,-100.00,NW,309,28.0,-999.0,75,-99.99,,,-99.99,,2013-02-14 20:11:00,
2013-02-14 14:21:00,36.0,31.0,-100.00,NW,316,9.0,-999.0,81,-99.99,,,-99.99,,2013-02-14 20:21:00,
2013-02-14 14:32:00,36.0,30.0,-100.00,NW,317,19.0,-999.0,78,-99.99,,,-99.99,,2013-02-14 20:32:00,
2013-02-14 14:42:00,35.0,32.0,-100.00,NW,304,18.0,-999.0,88,-99.99,,,-99.99,,2013-02-14 20:42:00,
2013-02-14 14:52:00,35.0,32.0,-100.00,NW,318,9.0,-999.0,92,-99.99,,,-99.99,,2013-02-14 20:52:00,
2013-02-14 15:02:00,35.0,34.0,-100.00,NW,316,2.0,-999.0,97,-99.99,,,-99.99,,2013-02-14 21:02:00,
2013-02-14 15:11:00,35.0,34.0,-100.00,NW,319,16.0,-999.0,99,-99.99,,,-99.99,,2013-02-14 21:11:00,
2013-02-14 15:21:00,34.0,34.0,-100.00,NW,321,8.0,-999.0,99,-99.99,,,-99.99,,2013-02-14 21:21:00,
2013-02-14 15:31:00,34.0,34.0,-100.00,NW,324,4.0,-999.0,99,-99.99,,,-99.99,,2013-02-14 21:31:00,
2013-02-14 15:42:00,33.0,-99.9,-100.00,NW,320,2.0,-999.0,-999,-99.99,,,-99.99,,2013-02-14 21:42:00,
2013-02-14 15:52:00,33.0,-99.9,-100.00,NNW,336,1.0,-999.0,-999,-99.99,,,-99.99,,2013-02-14 21:52:00,
2013-02-14 16:02:00,32.0,-99.9,-100.00,North,-999,1.0,-999.0,-999,-99.99,,,-99.99,,2013-02-14 22:02:00,
2013-02-14 16:12:00,32.0,-99.9,-100.00,North,-999,1.0,-999.0,-999,-99.99,,,-99.99,,2013-02-14 22:12:00,
2013-02-14 16:22:00,31.0,-99.9,-100.00,NNW,342,1.0,-999.0,-999,-99.99,,,-99.99,,2013-02-14 22:22:00,
2013-02-14 16:31:00,31.0,30.0,-100.00,NNW,335,2.0,-999.0,99,-99.99,,,-99.99,,2013-02-14 22:31:00,
2013-02-14 16:42:00,31.0,-99.9,-100.00,North,0,0.0,-999.0,-999,-99.99,,,-99.99,,2013-02-14 22:42:00,
2013-02-14 16:52:00,30.0,-99.9,-100.00,North,-999,2.0,-999.0,-999,-99.99,,,-99.99,,2013-02-14 22:52:00,
2013-02-14 17:01:00,28.0,-99.9,-100.00,North,-999,1.0,-999.0,-999,-99.99,,,-99.99,,2013-02-14 23:01:00,
2013-02-14 17:11:00,28.0,-99.9,-100.00,North,0,0.0,-999.0,-999,-99.99,,,-99.99,,2013-02-14 23:11:00,
2013-02-14 17:22:00,28.0,-99.9,-100.00,NNW,344,1.0,-999.0,-999,-99.99,,,-99.99,,2013-02-14 23:22:00,
2013-02-14 17:32:00,28.0,28.0,-100.00,East,89,2.0,-999.0,99,-99.99,,,-99.99,,2013-02-14 23:32:00,
2013-02-14 17:41:00,28.0,28.0,-100.00,North,0,0.0,-999.0,99,-99.99,,,-99.99,,2013-02-14 23:41:00,
2013-02-14 17:52:00,28.0,28.0,-100.00,South,174,2.0,-999.0,99,-99.99,,,-99.99,,2013-02-14 23:52:00,
2013-02-14 18:02:00,28.0,-99.9,-100.00,SE,146,1.0,-999.0,-999,-99.99,,,-99.99,,2013-02-15 00:02:00,
2013-02-14 18:11:00,28.0,-99.9,-100.00,WSW,258,2.0,-999.0,-999,-99.99,,,-99.99,,2013-02-15 00:11:00,
2013-02-14 18:22:00,27.0,-99.9,-100.00,SSE,158,3.0,-999.0,-999,-99.99,,,-99.99,,2013-02-15 00:22:00,
2013-02-14 18:32:00,27.0,21.0,-100.00,South,172,2.0,-999.0,77,-99.99,,,-99.99,,2013-02-15 00:32:00,
2013-02-14 18:42:00,26.0,20.0,-100.00,West,278,0.0,-999.0,76,-99.99,,,-99.99,,2013-02-15 00:42:00,
2013-02-14 18:51:00,26.0,21.0,-100.00,West,262,1.0,-999.0,80,-99.99,,,-99.99,,2013-02-15 00:51:00,
2013-02-14 19:02:00,26.0,21.0,-100.00,West,262,1.0,-999.0,80,-99.99,,,-99.99,,2013-02-15 01:02:00,
2013-02-14 19:11:00,26.0,17.0,-100.00,West,259,1.0,-999.0,69,-99.99,,,-99.99,,2013-02-15 01:11:00,
2013-02-14 19:21:00,25.0,16.0,-100.00,North,-999,3.0,-999.0,68,-99.99,,,-99.99,,2013-02-15 01:21:00,
2013-02-14 19:31:00,25.0,17.0,-100.00,NNW,330,1.0,-999.0,72,-99.99,,,-99.99,,2013-02-15 01:31:00,
2013-02-14 19:41:00,25.0,17.0,-100.00,NNW,330,1.0,-999.0,72,-99.99,,,-99.99,,2013-02-15 01:41:00,
2013-02-14 19:51:00,24.0,12.0,-100.00,North,-999,2.0,-999.0,59,-99.99,,,-99.99,,2013-02-15 01:51:00,
2013-02-14 20:01:00,23.0,14.0,-100.00,WSW,258,1.0,-999.0,68,-99.99,,,-99.99,,2013-02-15 02:01:00,
2013-02-14 20:11:00,23.0,15.0,-100.00,North,-999,1.0,-999.0,71,-99.99,,,-99.99,,2013-02-15 02:11:00,
2013-02-14 20:21:00,23.0,15.0,-100.00,NNW,341,1.0,-999.0,73,-99.99,,,-99.99,,2013-02-15 02:21:00,
2013-02-14 20:31:00,22.0,14.0,-100.00,NNW,334,2.0,-999.0,72,-99.99,,,-99.99,,2013-02-15 02:31:00,
2013-02-14 20:41:00,22.0,14.0,-100.00,NNW,334,2.0,-999.0,72,-99.99,,,-99.99,,2013-02-15 02:41:00,
2013-02-14 20:52:00,21.0,13.0,-100.00,NW,324,17.0,-999.0,70,-99.99,,,-99.99,,2013-02-15 02:52:00,
2013-02-14 21:02:00,20.0,14.0,-100.00,NNW,334,1.0,-999.0,74,-99.99,,,-99.99,,2013-02-15 03:02:00,
2013-02-14 21:11:00,20.0,14.0,-100.00,NNW,330,3.0,-999.0,75,-99.99,,,-99.99,,2013-02-15 03:11:00,
2013-02-14 21:22:00,20.0,15.0,-100.00,NW,322,3.0,-999.0,81,-99.99,,,-99.99,,2013-02-15 03:22:00,
2013-02-14 21:32:00,20.0,14.0,-100.00,NW,318,3.0,-999.0,77,-99.99,,,-99.99,,2013-02-15 03:32:00,
2013-02-14 21:42:00,19.0,13.0,-100.00,NW,325,4.0,-999.0,77,-99.99,,,-99.99,,2013-02-15 03:42:00,
2013-02-14 21:52:00,18.0,-99.9,-100.00,NW,311,1.0,-999.0,-999,-99.99,,,-99.99,,2013-02-15 03:52:00,
2013-02-14 22:02:00,18.0,-99.9,-100.00,North,0,0.0,-999.0,-999,-99.99,,,-99.99,,2013-02-15 04:02:00,
2013-02-14 22:11:00,17.0,-99.9,-100.00,WNW,301,1.0,-999.0,-999,-99.99,,,-99.99,,2013-02-15 04:11:00,
2013-02-14 22:22:00,17.0,-99.9,-100.00,NW,321,2.0,-999.0,-999,-99.99,,,-99.99,,2013-02-15 04:22:00,
2013-02-14 22:32:00,17.0,-99.9,-100.00,NW,315,1.0,-999.0,-999,-99.99,,,-99.99,,2013-02-15 04:32:00,
2013-02-14 22:42:00,16.0,-99.9,-100.00,NW,307,1.0,-999.0,-999,-99.99,,,-99.99,,2013-02-15 04:42:00,
2013-02-14 22:52:00,16.0,-99.9,-100.00,NW,304,1.0,-999.0,-999,-99.99,,,-99.99,,2013-02-15 04:52:00,
2013-02-14 23:02:00,16.0,-99.9,-100.00,WNW,300,1.0,-999.0,-999,-99.99,,,-99.99,,2013-02-15 05:02:00,
2013-02-14 23:12:00,15.0,-99.9,-100.00,NW,305,1.0,-999.0,-999,-99.99,,,-99.99,,2013-02-15 05:12:00,
2013-02-14 23:22:00,15.0,-99.9,-100.00,WNW,299,1.0,-999.0,-999,-99.99,,,-99.99,,2013-02-15 05:22:00,
2013-02-14 23:33:00,15.0,-99.9,-100.00,WNW,302,1.0,-999.0,-999,-99.99,,,-99.99,,2013-02-15 05:33:00,
2013-02-14 23:42:00,15.0,-99.9,-100.00,NW,310,1.0,-999.0,-999,-99.99,,,-99.99,,2013-02-15 05:42:00,
2013-02-14 23:52:00,14.0,-99.9,-100.00,North,0,0.0,-999.0,-999,-99.99,,,-99.99,,2013-02-15 05:52:00,